sensor_id;sensor_type;location;lat;lon;timestamp;temperature;humidity
14884;DHT22;7534;50.762;7.000;2023-02-26T00:00:29;0.30;99.90
14884;DHT22;7534;50.762;7.000;2023-02-26T00:02:54;0.30;99.90
14884;DHT22;7534;50.762;7.000;2023-02-26T00:05:20;0.20;99.90
14884;DHT22;7534;50.762;7.000;2023-02-26T00:07:46;0.20;99.90
14884;DHT22;7534;50.762;7.000;2023-02-26T00:10:13;0.10;99.90
14884;DHT22;7534;50.762;7.000;2023-02-26T00:12:41;0.10;99.90
14884;DHT22;7534;50.762;7.000;2023-02-26T00:15:10;0.10;99.90
14884;DHT22;7534;50.762;7.000;2023-02-26T00:17:58;0.00;99.90
14884;DHT22;7534;50.762;7.000;2023-02-26T00:20:30;0.10;99.90
14884;DHT22;7534;50.762;7.000;2023-02-26T00:22:56;0.00;99.90
14884;DHT22;7534;50.762;7.000;2023-02-26T00:25:22;-0.10;99.90
14884;DHT22;7534;50.762;7.000;2023-02-26T00:27:48;0.10;99.90
14884;DHT22;7534;50.762;7.000;2023-02-26T00:30:14;0.20;99.90
14884;DHT22;7534;50.762;7.000;2023-02-26T00:32:40;0.30;99.90
14884;DHT22;7534;50.762;7.000;2023-02-26T00:35:08;0.40;99.90
14884;DHT22;7534;50.762;7.000;2023-02-26T00:38:03;0.60;99.90
14884;DHT22;7534;50.762;7.000;2023-02-26T00:40:39;0.60;99.90
14884;DHT22;7534;50.762;7.000;2023-02-26T00:43:16;0.80;99.90
14884;DHT22;7534;50.762;7.000;2023-02-26T00:52:22;1.20;99.90
14884;DHT22;7534;50.762;7.000;2023-02-26T00:54:53;1.30;99.90
14884;DHT22;7534;50.762;7.000;2023-02-26T00:57:19;1.30;99.90
14884;DHT22;7534;50.762;7.000;2023-02-26T00:59:45;1.40;99.90
14884;DHT22;7534;50.762;7.000;2023-02-26T01:02:11;1.50;99.90
14884;DHT22;7534;50.762;7.000;2023-02-26T01:04:36;1.60;99.90
14884;DHT22;7534;50.762;7.000;2023-02-26T01:07:03;1.60;99.90
14884;DHT22;7534;50.762;7.000;2023-02-26T01:09:33;1.60;99.90
14884;DHT22;7534;50.762;7.000;2023-02-26T01:12:05;1.60;99.90
14884;DHT22;7534;50.762;7.000;2023-02-26T01:14:33;1.60;99.90
14884;DHT22;7534;50.762;7.000;2023-02-26T01:17:07;1.60;99.70
14884;DHT22;7534;50.762;7.000;2023-02-26T01:20:21;1.60;99.20
14884;DHT22;7534;50.762;7.000;2023-02-26T01:22:56;1.60;98.80
14884;DHT22;7534;50.762;7.000;2023-02-26T01:25:49;1.50;98.60
14884;DHT22;7534;50.762;7.000;2023-02-26T01:28:22;1.50;98.40
14884;DHT22;7534;50.762;7.000;2023-02-26T01:30:54;1.40;98.30
14884;DHT22;7534;50.762;7.000;2023-02-26T01:33:29;1.30;98.40
14884;DHT22;7534;50.762;7.000;2023-02-26T01:36:15;1.30;98.60
14884;DHT22;7534;50.762;7.000;2023-02-26T01:39:15;1.40;98.80
14884;DHT22;7534;50.762;7.000;2023-02-26T01:41:55;1.30;98.90
14884;DHT22;7534;50.762;7.000;2023-02-26T01:44:39;1.10;99.00
14884;DHT22;7534;50.762;7.000;2023-02-26T01:47:34;1.10;98.70
14884;DHT22;7534;50.762;7.000;2023-02-26T01:50:18;1.00;98.90
14884;DHT22;7534;50.762;7.000;2023-02-26T01:55:13;0.90;99.20
14884;DHT22;7534;50.762;7.000;2023-02-26T01:57:41;0.90;99.20
14884;DHT22;7534;50.762;7.000;2023-02-26T02:00:09;0.90;99.30
14884;DHT22;7534;50.762;7.000;2023-02-26T02:02:37;0.90;99.40
14884;DHT22;7534;50.762;7.000;2023-02-26T02:05:08;0.80;99.60
14884;DHT22;7534;50.762;7.000;2023-02-26T02:07:39;0.80;99.80
14884;DHT22;7534;50.762;7.000;2023-02-26T02:10:05;0.70;99.80
14884;DHT22;7534;50.762;7.000;2023-02-26T02:12:40;0.80;99.90
14884;DHT22;7534;50.762;7.000;2023-02-26T02:18:23;0.70;99.90
14884;DHT22;7534;50.762;7.000;2023-02-26T02:21:27;0.80;99.90
14884;DHT22;7534;50.762;7.000;2023-02-26T02:27:40;0.70;99.90
14884;DHT22;7534;50.762;7.000;2023-02-26T02:33:48;0.60;99.90
14884;DHT22;7534;50.762;7.000;2023-02-26T02:42:29;0.40;99.90
14884;DHT22;7534;50.762;7.000;2023-02-26T02:45:15;0.40;99.90
14884;DHT22;7534;50.762;7.000;2023-02-26T02:47:50;0.30;99.90
14884;DHT22;7534;50.762;7.000;2023-02-26T02:50:29;0.30;99.90
14884;DHT22;7534;50.762;7.000;2023-02-26T02:53:13;0.30;99.90
14884;DHT22;7534;50.762;7.000;2023-02-26T02:56:09;0.30;99.90
14884;DHT22;7534;50.762;7.000;2023-02-26T02:58:49;0.20;99.90
14884;DHT22;7534;50.762;7.000;2023-02-26T03:01:22;0.10;99.90
14884;DHT22;7534;50.762;7.000;2023-02-26T03:04:06;0.10;99.90
14884;DHT22;7534;50.762;7.000;2023-02-26T03:06:34;0.10;99.90
14884;DHT22;7534;50.762;7.000;2023-02-26T03:09:01;0.00;99.90
14884;DHT22;7534;50.762;7.000;2023-02-26T03:11:29;0.00;99.90
14884;DHT22;7534;50.762;7.000;2023-02-26T03:13:55;0.00;99.90
14884;DHT22;7534;50.762;7.000;2023-02-26T03:19:48;0.00;99.90
14884;DHT22;7534;50.762;7.000;2023-02-26T03:22:12;-0.10;99.90
14884;DHT22;7534;50.762;7.000;2023-02-26T03:25:11;-0.10;99.90
14884;DHT22;7534;50.762;7.000;2023-02-26T03:30:56;0.10;99.90
14884;DHT22;7534;50.762;7.000;2023-02-26T03:33:29;0.10;99.90
14884;DHT22;7534;50.762;7.000;2023-02-26T03:36:13;0.20;99.90
14884;DHT22;7534;50.762;7.000;2023-02-26T03:38:52;0.10;99.90
14884;DHT22;7534;50.762;7.000;2023-02-26T03:41:29;0.10;99.90
14884;DHT22;7534;50.762;7.000;2023-02-26T03:44:19;0.10;99.90
14884;DHT22;7534;50.762;7.000;2023-02-26T03:46:56;0.00;99.90
14884;DHT22;7534;50.762;7.000;2023-02-26T03:49:33;0.00;99.90
14884;DHT22;7534;50.762;7.000;2023-02-26T03:52:04;0.00;99.90
14884;DHT22;7534;50.762;7.000;2023-02-26T03:54:34;0.10;99.90
14884;DHT22;7534;50.762;7.000;2023-02-26T03:57:06;-0.10;99.90
14884;DHT22;7534;50.762;7.000;2023-02-26T03:59:32;0.00;99.90
14884;DHT22;7534;50.762;7.000;2023-02-26T04:02:12;-0.10;99.90
14884;DHT22;7534;50.762;7.000;2023-02-26T04:04:56;-0.10;99.90
14884;DHT22;7534;50.762;7.000;2023-02-26T04:07:27;-0.10;99.90
14884;DHT22;7534;50.762;7.000;2023-02-26T04:09:54;0.00;99.90
14884;DHT22;7534;50.762;7.000;2023-02-26T04:12:22;0.00;99.90
14884;DHT22;7534;50.762;7.000;2023-02-26T04:14:49;-0.10;99.90
14884;DHT22;7534;50.762;7.000;2023-02-26T04:17:16;0.00;99.90
14884;DHT22;7534;50.762;7.000;2023-02-26T04:19:42;0.00;99.90
14884;DHT22;7534;50.762;7.000;2023-02-26T04:22:08;0.00;99.90
14884;DHT22;7534;50.762;7.000;2023-02-26T04:24:34;-0.10;99.90
14884;DHT22;7534;50.762;7.000;2023-02-26T04:27:00;0.00;99.90
14884;DHT22;7534;50.762;7.000;2023-02-26T04:29:26;-0.10;99.90
14884;DHT22;7534;50.762;7.000;2023-02-26T04:31:52;-0.10;99.90
14884;DHT22;7534;50.762;7.000;2023-02-26T04:34:18;-0.20;99.90
14884;DHT22;7534;50.762;7.000;2023-02-26T04:36:44;-0.30;99.90
14884;DHT22;7534;50.762;7.000;2023-02-26T04:39:10;-0.20;99.90
14884;DHT22;7534;50.762;7.000;2023-02-26T04:41:37;-0.30;99.90
14884;DHT22;7534;50.762;7.000;2023-02-26T04:44:03;-0.30;99.90
14884;DHT22;7534;50.762;7.000;2023-02-26T04:46:30;-0.30;99.90
14884;DHT22;7534;50.762;7.000;2023-02-26T04:48:56;-0.30;99.90
14884;DHT22;7534;50.762;7.000;2023-02-26T04:51:22;-0.30;99.90
14884;DHT22;7534;50.762;7.000;2023-02-26T04:53:48;-0.30;99.90
14884;DHT22;7534;50.762;7.000;2023-02-26T04:56:14;-0.40;99.90
14884;DHT22;7534;50.762;7.000;2023-02-26T04:58:40;-0.30;99.90
14884;DHT22;7534;50.762;7.000;2023-02-26T05:01:06;-0.30;99.90
14884;DHT22;7534;50.762;7.000;2023-02-26T05:03:32;-0.40;99.90
14884;DHT22;7534;50.762;7.000;2023-02-26T05:05:58;-0.40;99.90
14884;DHT22;7534;50.762;7.000;2023-02-26T05:08:24;-0.60;99.90
14884;DHT22;7534;50.762;7.000;2023-02-26T05:10:50;-0.60;99.90
14884;DHT22;7534;50.762;7.000;2023-02-26T05:13:17;-0.40;99.90
14884;DHT22;7534;50.762;7.000;2023-02-26T05:15:43;-0.50;99.90
14884;DHT22;7534;50.762;7.000;2023-02-26T05:18:09;-0.40;99.90
14884;DHT22;7534;50.762;7.000;2023-02-26T05:20:35;-0.40;99.90
14884;DHT22;7534;50.762;7.000;2023-02-26T05:23:01;-0.40;99.90
14884;DHT22;7534;50.762;7.000;2023-02-26T05:25:27;-0.40;99.90
14884;DHT22;7534;50.762;7.000;2023-02-26T05:27:53;-0.40;99.90
14884;DHT22;7534;50.762;7.000;2023-02-26T05:30:20;-0.30;99.90
14884;DHT22;7534;50.762;7.000;2023-02-26T05:32:46;-0.50;99.90
14884;DHT22;7534;50.762;7.000;2023-02-26T05:35:12;-0.40;99.90
14884;DHT22;7534;50.762;7.000;2023-02-26T05:37:38;-0.30;99.90
14884;DHT22;7534;50.762;7.000;2023-02-26T05:40:06;-0.40;99.90
14884;DHT22;7534;50.762;7.000;2023-02-26T05:42:36;-0.50;99.90
14884;DHT22;7534;50.762;7.000;2023-02-26T05:45:04;-0.50;99.90
14884;DHT22;7534;50.762;7.000;2023-02-26T05:47:32;-0.30;99.90
14884;DHT22;7534;50.762;7.000;2023-02-26T05:49:58;-0.40;99.90
14884;DHT22;7534;50.762;7.000;2023-02-26T05:52:24;-0.30;99.90
14884;DHT22;7534;50.762;7.000;2023-02-26T05:54:49;-0.20;99.90
14884;DHT22;7534;50.762;7.000;2023-02-26T05:57:15;-0.40;99.90
14884;DHT22;7534;50.762;7.000;2023-02-26T05:59:41;-0.50;99.90
14884;DHT22;7534;50.762;7.000;2023-02-26T06:02:06;-0.40;99.90
14884;DHT22;7534;50.762;7.000;2023-02-26T06:04:32;-0.40;99.90
14884;DHT22;7534;50.762;7.000;2023-02-26T06:06:58;-0.30;99.90
14884;DHT22;7534;50.762;7.000;2023-02-26T06:09:24;-0.30;99.90
14884;DHT22;7534;50.762;7.000;2023-02-26T06:11:50;-0.40;99.90
14884;DHT22;7534;50.762;7.000;2023-02-26T06:14:15;-0.30;99.90
14884;DHT22;7534;50.762;7.000;2023-02-26T06:16:41;-0.30;99.90
14884;DHT22;7534;50.762;7.000;2023-02-26T06:19:07;-0.40;99.90
14884;DHT22;7534;50.762;7.000;2023-02-26T06:21:32;-0.50;99.90
14884;DHT22;7534;50.762;7.000;2023-02-26T06:23:58;-0.50;99.90
14884;DHT22;7534;50.762;7.000;2023-02-26T06:26:24;-0.40;99.90
14884;DHT22;7534;50.762;7.000;2023-02-26T06:28:49;-0.50;99.90
14884;DHT22;7534;50.762;7.000;2023-02-26T06:31:15;-0.30;99.90
14884;DHT22;7534;50.762;7.000;2023-02-26T06:33:41;-0.20;99.90
14884;DHT22;7534;50.762;7.000;2023-02-26T06:36:06;-0.20;99.90
14884;DHT22;7534;50.762;7.000;2023-02-26T06:38:32;-0.30;99.90
14884;DHT22;7534;50.762;7.000;2023-02-26T06:40:58;-0.10;99.90
14884;DHT22;7534;50.762;7.000;2023-02-26T06:43:24;-0.10;99.90
14884;DHT22;7534;50.762;7.000;2023-02-26T06:45:50;-0.10;99.90
14884;DHT22;7534;50.762;7.000;2023-02-26T06:48:16;-0.20;99.90
14884;DHT22;7534;50.762;7.000;2023-02-26T06:50:41;-0.30;99.90
14884;DHT22;7534;50.762;7.000;2023-02-26T06:53:07;-0.20;99.90
14884;DHT22;7534;50.762;7.000;2023-02-26T06:55:33;0.20;99.90
14884;DHT22;7534;50.762;7.000;2023-02-26T06:57:58;0.60;99.90
14884;DHT22;7534;50.762;7.000;2023-02-26T07:00:25;0.70;99.20
14884;DHT22;7534;50.762;7.000;2023-02-26T07:02:51;0.70;98.80
14884;DHT22;7534;50.762;7.000;2023-02-26T07:05:17;0.70;98.80
14884;DHT22;7534;50.762;7.000;2023-02-26T07:07:43;0.80;98.80
14884;DHT22;7534;50.762;7.000;2023-02-26T07:10:10;0.70;98.30
14884;DHT22;7534;50.762;7.000;2023-02-26T07:12:36;0.80;98.40
14884;DHT22;7534;50.762;7.000;2023-02-26T07:15:04;0.90;98.70
14884;DHT22;7534;50.762;7.000;2023-02-26T07:17:31;1.20;98.30
14884;DHT22;7534;50.762;7.000;2023-02-26T07:19:57;1.60;97.50
14884;DHT22;7534;50.762;7.000;2023-02-26T07:22:23;1.90;96.80
14884;DHT22;7534;50.762;7.000;2023-02-26T07:24:48;2.20;95.90
14884;DHT22;7534;50.762;7.000;2023-02-26T07:27:16;2.70;95.60
14884;DHT22;7534;50.762;7.000;2023-02-26T07:29:41;3.10;94.20
14884;DHT22;7534;50.762;7.000;2023-02-26T07:32:07;3.60;93.40
14884;DHT22;7534;50.762;7.000;2023-02-26T07:34:33;4.10;92.90
14884;DHT22;7534;50.762;7.000;2023-02-26T07:36:59;5.20;91.90
14884;DHT22;7534;50.762;7.000;2023-02-26T07:39:25;6.00;88.90
14884;DHT22;7534;50.762;7.000;2023-02-26T07:41:51;6.90;86.20
14884;DHT22;7534;50.762;7.000;2023-02-26T07:44:17;7.50;82.50
14884;DHT22;7534;50.762;7.000;2023-02-26T07:46:43;8.40;80.50
14884;DHT22;7534;50.762;7.000;2023-02-26T07:49:09;9.40;77.60
14884;DHT22;7534;50.762;7.000;2023-02-26T07:51:35;10.00;71.80
14884;DHT22;7534;50.762;7.000;2023-02-26T07:54:01;10.10;69.70
14884;DHT22;7534;50.762;7.000;2023-02-26T07:56:27;10.50;66.40
14884;DHT22;7534;50.762;7.000;2023-02-26T07:58:53;10.20;67.50
14884;DHT22;7534;50.762;7.000;2023-02-26T08:01:19;10.70;67.00
14884;DHT22;7534;50.762;7.000;2023-02-26T08:03:46;10.90;65.80
14884;DHT22;7534;50.762;7.000;2023-02-26T08:06:11;11.20;63.40
14884;DHT22;7534;50.762;7.000;2023-02-26T08:08:37;11.10;63.40
14884;DHT22;7534;50.762;7.000;2023-02-26T08:11:03;12.10;61.60
14884;DHT22;7534;50.762;7.000;2023-02-26T08:13:29;12.40;57.10
14884;DHT22;7534;50.762;7.000;2023-02-26T08:15:55;12.30;56.30
14884;DHT22;7534;50.762;7.000;2023-02-26T08:18:20;11.80;56.50
14884;DHT22;7534;50.762;7.000;2023-02-26T08:20:49;10.70;60.90
14884;DHT22;7534;50.762;7.000;2023-02-26T08:23:16;10.00;63.60
14884;DHT22;7534;50.762;7.000;2023-02-26T08:25:42;10.70;64.80
14884;DHT22;7534;50.762;7.000;2023-02-26T08:28:07;11.60;61.40
14884;DHT22;7534;50.762;7.000;2023-02-26T08:30:33;11.00;59.60
14884;DHT22;7534;50.762;7.000;2023-02-26T08:32:58;9.00;65.30
14884;DHT22;7534;50.762;7.000;2023-02-26T08:35:24;7.60;71.30
14884;DHT22;7534;50.762;7.000;2023-02-26T08:37:50;7.40;77.10
14884;DHT22;7534;50.762;7.000;2023-02-26T08:40:17;8.70;75.20
14884;DHT22;7534;50.762;7.000;2023-02-26T08:42:44;9.80;71.30
14884;DHT22;7534;50.762;7.000;2023-02-26T08:45:10;11.10;66.30
14884;DHT22;7534;50.762;7.000;2023-02-26T08:47:35;12.00;59.30
14884;DHT22;7534;50.762;7.000;2023-02-26T08:50:03;11.70;57.20
14884;DHT22;7534;50.762;7.000;2023-02-26T08:52:29;11.00;58.40
14884;DHT22;7534;50.762;7.000;2023-02-26T08:54:54;11.00;60.70
14884;DHT22;7534;50.762;7.000;2023-02-26T08:57:20;11.20;59.80
14884;DHT22;7534;50.762;7.000;2023-02-26T08:59:46;12.30;57.40
14884;DHT22;7534;50.762;7.000;2023-02-26T09:02:14;11.80;55.60
14884;DHT22;7534;50.762;7.000;2023-02-26T09:04:40;11.20;57.60
14884;DHT22;7534;50.762;7.000;2023-02-26T09:07:06;11.30;57.40
14884;DHT22;7534;50.762;7.000;2023-02-26T09:09:31;12.30;57.60
14884;DHT22;7534;50.762;7.000;2023-02-26T09:11:57;13.80;52.60
14884;DHT22;7534;50.762;7.000;2023-02-26T09:14:23;14.50;50.50
14884;DHT22;7534;50.762;7.000;2023-02-26T09:16:49;15.10;47.40
14884;DHT22;7534;50.762;7.000;2023-02-26T09:19:14;13.70;45.90
14884;DHT22;7534;50.762;7.000;2023-02-26T09:21:40;13.20;49.80
14884;DHT22;7534;50.762;7.000;2023-02-26T09:24:06;12.80;50.30
14884;DHT22;7534;50.762;7.000;2023-02-26T09:26:32;13.00;50.50
14884;DHT22;7534;50.762;7.000;2023-02-26T09:28:57;11.50;50.90
14884;DHT22;7534;50.762;7.000;2023-02-26T09:31:23;10.20;57.00
14884;DHT22;7534;50.762;7.000;2023-02-26T09:33:49;9.30;62.10
14884;DHT22;7534;50.762;7.000;2023-02-26T09:36:15;9.10;64.60
14884;DHT22;7534;50.762;7.000;2023-02-26T09:38:40;9.10;64.20
14884;DHT22;7534;50.762;7.000;2023-02-26T09:41:15;9.00;65.70
14884;DHT22;7534;50.762;7.000;2023-02-26T09:47:16;10.10;61.40
14884;DHT22;7534;50.762;7.000;2023-02-26T09:49:50;10.40;59.10
14884;DHT22;7534;50.762;7.000;2023-02-26T09:52:31;9.30;60.80
14884;DHT22;7534;50.762;7.000;2023-02-26T09:55:30;7.70;68.20
14884;DHT22;7534;50.762;7.000;2023-02-26T09:58:05;6.90;72.00
14884;DHT22;7534;50.762;7.000;2023-02-26T10:00:46;6.40;75.00
14884;DHT22;7534;50.762;7.000;2023-02-26T10:06:25;5.30;79.70
14884;DHT22;7534;50.762;7.000;2023-02-26T10:09:12;6.00;78.70
14884;DHT22;7534;50.762;7.000;2023-02-26T10:12:06;6.90;76.90
14884;DHT22;7534;50.762;7.000;2023-02-26T10:14:57;7.80;74.30
14884;DHT22;7534;50.762;7.000;2023-02-26T10:20:23;8.30;68.60
14884;DHT22;7534;50.762;7.000;2023-02-26T10:23:04;7.80;67.30
14884;DHT22;7534;50.762;7.000;2023-02-26T10:26:06;7.40;68.10
14884;DHT22;7534;50.762;7.000;2023-02-26T10:28:57;7.20;69.10
14884;DHT22;7534;50.762;7.000;2023-02-26T10:31:54;6.50;69.60
14884;DHT22;7534;50.762;7.000;2023-02-26T10:40:22;5.30;74.10
14884;DHT22;7534;50.762;7.000;2023-02-26T10:43:12;4.90;74.30
14884;DHT22;7534;50.762;7.000;2023-02-26T10:51:39;4.60;74.40
14884;DHT22;7534;50.762;7.000;2023-02-26T10:54:32;4.50;75.20
14884;DHT22;7534;50.762;7.000;2023-02-26T10:57:02;4.40;76.00
14884;DHT22;7534;50.762;7.000;2023-02-26T10:59:28;4.30;75.60
14884;DHT22;7534;50.762;7.000;2023-02-26T11:01:56;4.20;77.30
14884;DHT22;7534;50.762;7.000;2023-02-26T11:04:25;4.20;76.20
14884;DHT22;7534;50.762;7.000;2023-02-26T11:06:57;4.20;77.80
14884;DHT22;7534;50.762;7.000;2023-02-26T11:12:14;4.50;74.50
14884;DHT22;7534;50.762;7.000;2023-02-26T11:14:41;4.70;74.20
14884;DHT22;7534;50.762;7.000;2023-02-26T11:17:31;4.80;74.80
14884;DHT22;7534;50.762;7.000;2023-02-26T11:23:00;4.40;75.40
14884;DHT22;7534;50.762;7.000;2023-02-26T11:25:30;4.40;74.40
14884;DHT22;7534;50.762;7.000;2023-02-26T11:28:35;4.30;74.80
14884;DHT22;7534;50.762;7.000;2023-02-26T11:31:16;4.30;73.50
14884;DHT22;7534;50.762;7.000;2023-02-26T11:33:51;4.20;73.50
14884;DHT22;7534;50.762;7.000;2023-02-26T11:36:25;4.20;72.70
14884;DHT22;7534;50.762;7.000;2023-02-26T11:41:45;4.30;72.40
14884;DHT22;7534;50.762;7.000;2023-02-26T11:44:16;4.40;73.10
14884;DHT22;7534;50.762;7.000;2023-02-26T11:46:52;4.70;71.10
14884;DHT22;7534;50.762;7.000;2023-02-26T11:49:25;5.00;66.70
14884;DHT22;7534;50.762;7.000;2023-02-26T11:54:39;4.90;68.20
14884;DHT22;7534;50.762;7.000;2023-02-26T11:57:10;5.30;68.50
14884;DHT22;7534;50.762;7.000;2023-02-26T11:59:46;5.90;70.80
14884;DHT22;7534;50.762;7.000;2023-02-26T12:02:14;6.40;68.50
14884;DHT22;7534;50.762;7.000;2023-02-26T12:04:46;6.50;68.70
14884;DHT22;7534;50.762;7.000;2023-02-26T12:07:16;6.10;66.50
14884;DHT22;7534;50.762;7.000;2023-02-26T12:09:43;5.90;68.20
14884;DHT22;7534;50.762;7.000;2023-02-26T12:15:35;5.20;66.70
14884;DHT22;7534;50.762;7.000;2023-02-26T12:26:54;5.10;73.90
14884;DHT22;7534;50.762;7.000;2023-02-26T12:29:54;5.40;72.60
14884;DHT22;7534;50.762;7.000;2023-02-26T12:32:38;5.70;71.60
14884;DHT22;7534;50.762;7.000;2023-02-26T12:35:34;6.30;70.80
14884;DHT22;7534;50.762;7.000;2023-02-26T12:38:33;6.70;66.00
14884;DHT22;7534;50.762;7.000;2023-02-26T12:44:59;6.30;63.60
14884;DHT22;7534;50.762;7.000;2023-02-26T12:47:48;6.20;64.10
14884;DHT22;7534;50.762;7.000;2023-02-26T12:50:49;6.00;66.80
14884;DHT22;7534;50.762;7.000;2023-02-26T13:02:51;4.80;68.70
14884;DHT22;7534;50.762;7.000;2023-02-26T13:05:33;4.90;70.30
14884;DHT22;7534;50.762;7.000;2023-02-26T13:11:07;4.90;68.90
14884;DHT22;7534;50.762;7.000;2023-02-26T13:14:26;5.20;67.40
14884;DHT22;7534;50.762;7.000;2023-02-26T13:20:12;5.20;67.70
14884;DHT22;7534;50.762;7.000;2023-02-26T13:23:02;5.30;65.30
14884;DHT22;7534;50.762;7.000;2023-02-26T13:25:37;5.20;65.10
14884;DHT22;7534;50.762;7.000;2023-02-26T13:28:30;5.00;64.10
14884;DHT22;7534;50.762;7.000;2023-02-26T13:31:26;5.20;65.80
14884;DHT22;7534;50.762;7.000;2023-02-26T13:34:05;5.40;66.40
14884;DHT22;7534;50.762;7.000;2023-02-26T13:36:38;5.40;66.00
14884;DHT22;7534;50.762;7.000;2023-02-26T13:40:00;5.30;65.10
14884;DHT22;7534;50.762;7.000;2023-02-26T13:42:52;5.70;66.20
14884;DHT22;7534;50.762;7.000;2023-02-26T13:51:29;5.10;66.60
14884;DHT22;7534;50.762;7.000;2023-02-26T13:54:04;5.50;68.80
14884;DHT22;7534;50.762;7.000;2023-02-26T13:56:46;5.40;68.60
14884;DHT22;7534;50.762;7.000;2023-02-26T13:59:30;5.40;68.40
14884;DHT22;7534;50.762;7.000;2023-02-26T14:02:36;5.40;67.20
14884;DHT22;7534;50.762;7.000;2023-02-26T14:05:29;5.40;68.60
14884;DHT22;7534;50.762;7.000;2023-02-26T14:14:38;5.60;67.20
14884;DHT22;7534;50.762;7.000;2023-02-26T14:22:20;5.60;65.60
14884;DHT22;7534;50.762;7.000;2023-02-26T14:30:52;6.10;67.00
14884;DHT22;7534;50.762;7.000;2023-02-26T14:33:44;5.90;64.30
14884;DHT22;7534;50.762;7.000;2023-02-26T14:36:19;5.90;65.50
14884;DHT22;7534;50.762;7.000;2023-02-26T14:38:51;5.80;63.70
14884;DHT22;7534;50.762;7.000;2023-02-26T14:41:32;5.70;64.70
14884;DHT22;7534;50.762;7.000;2023-02-26T14:44:20;5.70;65.70
14884;DHT22;7534;50.762;7.000;2023-02-26T14:46:50;5.60;66.50
14884;DHT22;7534;50.762;7.000;2023-02-26T14:49:25;5.40;64.90
14884;DHT22;7534;50.762;7.000;2023-02-26T15:01:49;5.20;65.20
14884;DHT22;7534;50.762;7.000;2023-02-26T15:15:58;5.30;66.80
14884;DHT22;7534;50.762;7.000;2023-02-26T15:24:29;6.00;64.90
14884;DHT22;7534;50.762;7.000;2023-02-26T15:27:01;6.20;66.10
14884;DHT22;7534;50.762;7.000;2023-02-26T15:29:35;6.20;64.60
14884;DHT22;7534;50.762;7.000;2023-02-26T15:32:24;5.80;65.40
14884;DHT22;7534;50.762;7.000;2023-02-26T15:35:15;5.10;66.00
14884;DHT22;7534;50.762;7.000;2023-02-26T15:37:54;5.00;67.40
14884;DHT22;7534;50.762;7.000;2023-02-26T15:40:24;5.00;69.10
14884;DHT22;7534;50.762;7.000;2023-02-26T15:42:54;4.80;68.20
14884;DHT22;7534;50.762;7.000;2023-02-26T15:45:43;5.00;69.30
14884;DHT22;7534;50.762;7.000;2023-02-26T15:48:19;5.30;70.60
14884;DHT22;7534;50.762;7.000;2023-02-26T15:50:57;5.50;68.70
14884;DHT22;7534;50.762;7.000;2023-02-26T15:53:34;5.70;68.40
14884;DHT22;7534;50.762;7.000;2023-02-26T15:56:16;5.50;67.40
14884;DHT22;7534;50.762;7.000;2023-02-26T15:58:51;5.60;64.30
14884;DHT22;7534;50.762;7.000;2023-02-26T16:01:22;5.70;65.90
14884;DHT22;7534;50.762;7.000;2023-02-26T16:03:51;5.60;65.70
14884;DHT22;7534;50.762;7.000;2023-02-26T16:06:28;5.40;64.80
14884;DHT22;7534;50.762;7.000;2023-02-26T16:09:03;5.40;67.10
14884;DHT22;7534;50.762;7.000;2023-02-26T16:11:36;5.40;66.60
14884;DHT22;7534;50.762;7.000;2023-02-26T16:14:06;5.10;64.50
14884;DHT22;7534;50.762;7.000;2023-02-26T16:16:41;5.00;67.00
14884;DHT22;7534;50.762;7.000;2023-02-26T16:19:16;4.90;67.10
14884;DHT22;7534;50.762;7.000;2023-02-26T16:21:55;4.90;68.10
14884;DHT22;7534;50.762;7.000;2023-02-26T16:24:24;4.80;68.20
14884;DHT22;7534;50.762;7.000;2023-02-26T16:26:55;4.60;69.70
14884;DHT22;7534;50.762;7.000;2023-02-26T16:29:29;4.60;69.60
14884;DHT22;7534;50.762;7.000;2023-02-26T16:31:59;4.50;70.50
14884;DHT22;7534;50.762;7.000;2023-02-26T16:34:49;4.40;70.90
14884;DHT22;7534;50.762;7.000;2023-02-26T16:43:05;4.00;71.20
14884;DHT22;7534;50.762;7.000;2023-02-26T16:46:00;3.90;70.20
14884;DHT22;7534;50.762;7.000;2023-02-26T16:48:35;3.70;71.20
14884;DHT22;7534;50.762;7.000;2023-02-26T16:51:11;3.70;71.10
14884;DHT22;7534;50.762;7.000;2023-02-26T16:53:47;3.60;71.20
14884;DHT22;7534;50.762;7.000;2023-02-26T16:56:19;3.50;71.70
14884;DHT22;7534;50.762;7.000;2023-02-26T16:59:19;3.50;73.00
14884;DHT22;7534;50.762;7.000;2023-02-26T17:01:55;3.40;73.60
14884;DHT22;7534;50.762;7.000;2023-02-26T17:04:25;3.30;74.30
14884;DHT22;7534;50.762;7.000;2023-02-26T17:06:54;3.20;75.50
14884;DHT22;7534;50.762;7.000;2023-02-26T17:09:39;3.10;77.00
14884;DHT22;7534;50.762;7.000;2023-02-26T17:12:11;3.00;77.80
14884;DHT22;7534;50.762;7.000;2023-02-26T17:14:44;2.90;78.00
14884;DHT22;7534;50.762;7.000;2023-02-26T17:17:12;2.90;78.50
14884;DHT22;7534;50.762;7.000;2023-02-26T17:19:46;2.70;78.80
14884;DHT22;7534;50.762;7.000;2023-02-26T17:22:53;2.70;78.60
14884;DHT22;7534;50.762;7.000;2023-02-26T17:25:20;2.70;79.70
14884;DHT22;7534;50.762;7.000;2023-02-26T17:27:49;2.60;79.30
14884;DHT22;7534;50.762;7.000;2023-02-26T17:30:18;2.40;79.70
14884;DHT22;7534;50.762;7.000;2023-02-26T17:32:46;2.50;81.70
14884;DHT22;7534;50.762;7.000;2023-02-26T17:35:13;2.40;80.60
14884;DHT22;7534;50.762;7.000;2023-02-26T17:37:41;2.30;80.90
14884;DHT22;7534;50.762;7.000;2023-02-26T17:40:20;2.20;81.60
14884;DHT22;7534;50.762;7.000;2023-02-26T17:42:49;2.30;82.30
14884;DHT22;7534;50.762;7.000;2023-02-26T17:45:16;2.30;82.50
14884;DHT22;7534;50.762;7.000;2023-02-26T17:47:43;2.20;83.30
14884;DHT22;7534;50.762;7.000;2023-02-26T17:50:33;2.20;83.30
14884;DHT22;7534;50.762;7.000;2023-02-26T17:53:21;2.10;83.20
14884;DHT22;7534;50.762;7.000;2023-02-26T17:55:53;2.20;83.80
14884;DHT22;7534;50.762;7.000;2023-02-26T17:58:34;2.10;83.60
14884;DHT22;7534;50.762;7.000;2023-02-26T18:01:00;2.00;83.70
14884;DHT22;7534;50.762;7.000;2023-02-26T18:03:28;2.10;84.50
14884;DHT22;7534;50.762;7.000;2023-02-26T18:05:55;2.10;85.10
14884;DHT22;7534;50.762;7.000;2023-02-26T18:08:26;2.10;84.70
14884;DHT22;7534;50.762;7.000;2023-02-26T18:10:54;2.10;85.70
14884;DHT22;7534;50.762;7.000;2023-02-26T18:13:21;2.00;85.60
14884;DHT22;7534;50.762;7.000;2023-02-26T18:15:48;1.90;85.90
14884;DHT22;7534;50.762;7.000;2023-02-26T18:18:15;1.90;87.20
14884;DHT22;7534;50.762;7.000;2023-02-26T18:20:42;1.80;86.90
14884;DHT22;7534;50.762;7.000;2023-02-26T18:23:09;1.80;87.30
14884;DHT22;7534;50.762;7.000;2023-02-26T18:25:39;1.70;87.90
14884;DHT22;7534;50.762;7.000;2023-02-26T18:28:06;1.70;88.20
14884;DHT22;7534;50.762;7.000;2023-02-26T18:30:40;1.60;88.30
14884;DHT22;7534;50.762;7.000;2023-02-26T18:33:10;1.70;88.00
14884;DHT22;7534;50.762;7.000;2023-02-26T18:35:37;1.70;88.20
14884;DHT22;7534;50.762;7.000;2023-02-26T18:38:11;1.60;88.60
14884;DHT22;7534;50.762;7.000;2023-02-26T18:40:45;1.50;88.80
14884;DHT22;7534;50.762;7.000;2023-02-26T18:43:11;1.50;90.00
14884;DHT22;7534;50.762;7.000;2023-02-26T18:45:42;1.40;90.10
14884;DHT22;7534;50.762;7.000;2023-02-26T18:48:11;1.40;90.20
14884;DHT22;7534;50.762;7.000;2023-02-26T18:50:40;1.40;90.40
14884;DHT22;7534;50.762;7.000;2023-02-26T18:53:06;1.20;90.90
14884;DHT22;7534;50.762;7.000;2023-02-26T18:55:33;1.20;91.10
14884;DHT22;7534;50.762;7.000;2023-02-26T18:57:59;1.10;91.50
14884;DHT22;7534;50.762;7.000;2023-02-26T19:00:24;1.10;91.50
14884;DHT22;7534;50.762;7.000;2023-02-26T19:02:53;1.00;91.40
14884;DHT22;7534;50.762;7.000;2023-02-26T19:05:19;0.90;91.50